Olton, Texas
Current Conditions -  °F | °C
As of 2:15 PM on Sunday 25 Jan 2015 (Local Time) from KPVW Reporting Station
Clear Clear  
Wind Chill: 55°   Ceiling: Unl
Heat Index: 55°   Visibility: 10mi
Dew Point: 28°   Wind: 14mph
Humidity: 36%   Direction: 360°N
Pressure: 30.2"   Gusts: 23mph
Location:  34.18°N, 102.13°W
Report Text: KPVW 252015Z AUTO 36012G20KT 10SM CLR 13/M02 A3020 RMK AO2 T01271020
Loading
Personal Weather Stations






























Interactive Weather Map New forecast layout! Learn more

10-Day Weather Forecast

Advertisements
Track Severe Weather on mobile